Terminal Aerodrome Forecast
Issued by NWS

Home | Current Version | Previous Version | Text Only | Print | Product List | Glossary On
Versions: 1 2 3 4 5 6 7 8 9 10 11 12 13 14 15 16 17 18 19 20 21 22 23 24 25 26 27 28 29 30 31 32
000
FTUS41 KILN 050116 AAA
TAFLCK
TAF AMD
KLCK 050116Z 0501/0524 24007KT P6SM VCSH SCT040 BKN100
      TEMPO 0501/0503 4SM -SHRA BR OVC022
     FM050400 VRB03KT P6SM BKN110
     FM051300 15005KT P6SM SCT040
     FM051800 12005KT P6SM VCTS BKN050CB=

USA.gov is the U.S. government's official web portal to all federal, state and local government web resources and services.